createdAt,value
2022-09-11T00:00:05.098Z,5.3
2022-09-11T00:05:05.106Z,4.9
2022-09-11T00:10:05.089Z,4.9
2022-09-11T00:15:05.100Z,5.6
2022-09-11T00:20:05.094Z,5.6
2022-09-11T00:25:05.110Z,4.6
2022-09-11T00:30:05.108Z,4.6
2022-09-11T00:35:05.105Z,3.8
2022-09-11T00:40:05.167Z,3.8
2022-09-11T00:45:05.104Z,5.6
2022-09-11T00:50:05.088Z,5.6
2022-09-11T00:55:05.096Z,6.3
2022-09-11T01:00:05.086Z,6.3
2022-09-11T01:05:05.095Z,6.8
2022-09-11T01:10:05.099Z,6.8
2022-09-11T01:15:05.098Z,6.1
2022-09-11T01:20:05.093Z,6.1
2022-09-11T01:25:05.097Z,6.3
2022-09-11T01:30:08.340Z,6.3
2022-09-11T01:35:05.098Z,6.8
2022-09-11T01:40:05.113Z,6.8
2022-09-11T01:45:05.099Z,8
2022-09-11T01:50:05.108Z,8
2022-09-11T01:55:05.093Z,7.4
2022-09-11T02:00:05.093Z,7.4
2022-09-11T02:05:05.105Z,8.7
2022-09-11T02:10:05.111Z,8.7
2022-09-11T02:15:05.119Z,10.3
2022-09-11T02:20:05.099Z,10.3
2022-09-11T02:25:05.097Z,10.4
2022-09-11T02:30:05.096Z,10.4
2022-09-11T02:35:05.100Z,9.1
2022-09-11T02:40:05.172Z,9.1
2022-09-11T02:45:05.105Z,10.4
2022-09-11T02:50:05.091Z,10.4
2022-09-11T02:55:05.112Z,11.1
2022-09-11T03:00:05.105Z,11.1
2022-09-11T03:05:05.116Z,12.4
2022-09-11T03:10:05.090Z,12.4
2022-09-11T03:15:05.103Z,12.1
2022-09-11T03:20:05.090Z,12.1
2022-09-11T03:25:05.095Z,11.8
2022-09-11T03:30:05.094Z,11.8
2022-09-11T03:35:05.102Z,10.1
2022-09-11T03:40:05.161Z,10.1
2022-09-11T03:45:05.097Z,8.9
2022-09-11T03:50:05.090Z,8.9
2022-09-11T03:55:05.103Z,8.7
2022-09-11T04:00:05.102Z,8.7
2022-09-11T04:05:05.107Z,9.5
2022-09-11T04:10:05.090Z,9.5
2022-09-11T04:15:05.102Z,8.9
2022-09-11T04:20:05.092Z,8.9
2022-09-11T04:25:05.102Z,8.5
2022-09-11T04:30:05.104Z,8.5
2022-09-11T04:35:05.107Z,6.8
2022-09-11T04:40:05.127Z,6.8
2022-09-11T04:45:05.105Z,6.5
2022-09-11T04:50:05.088Z,6.5
2022-09-11T04:55:05.093Z,6
2022-09-11T05:00:05.094Z,6
2022-09-11T05:05:05.110Z,6.4
2022-09-11T05:10:05.099Z,6.4
2022-09-11T05:15:05.098Z,6
2022-09-11T05:20:07.617Z,6
2022-09-11T05:25:05.096Z,6.8
2022-09-11T05:30:05.085Z,6.8
2022-09-11T05:35:05.105Z,6.4
2022-09-11T05:40:05.142Z,6.4
2022-09-11T05:45:05.109Z,6.6
2022-09-11T05:50:05.088Z,6.6
2022-09-11T05:55:05.100Z,6.9
2022-09-11T06:00:05.106Z,6.9
2022-09-11T06:05:05.103Z,7.7
2022-09-11T06:10:05.091Z,7.7
2022-09-11T06:15:05.102Z,8.5
2022-09-11T06:20:05.094Z,8.5
2022-09-11T06:25:05.097Z,9.4
2022-09-11T06:30:05.099Z,9.4
2022-09-11T06:35:05.101Z,11
2022-09-11T06:40:05.139Z,11
2022-09-11T06:45:05.093Z,11.5
2022-09-11T06:50:05.237Z,11.5
2022-09-11T06:55:05.100Z,11
2022-09-11T07:00:05.104Z,11
2022-09-11T07:05:05.109Z,10.8
2022-09-11T07:10:05.107Z,10.8
2022-09-11T07:15:05.104Z,11.2
2022-09-11T07:20:05.103Z,11.2
2022-09-11T07:25:07.629Z,12.3
2022-09-11T07:30:05.094Z,12.3
2022-09-11T07:35:05.108Z,12.2
2022-09-11T07:40:05.126Z,12.2
2022-09-11T07:45:05.098Z,13.3
2022-09-11T07:50:05.098Z,13.3
2022-09-11T07:55:05.101Z,13.2
2022-09-11T08:00:05.109Z,13.2
2022-09-11T08:05:05.097Z,13.4
2022-09-11T08:10:25.911Z,13.4
2022-09-11T08:15:05.096Z,14.3
2022-09-11T08:20:05.098Z,14.3
2022-09-11T08:25:05.107Z,13.1
2022-09-11T08:30:05.098Z,13.1
2022-09-11T08:35:05.118Z,13.4
2022-09-11T08:40:05.182Z,13.4
2022-09-11T08:45:05.110Z,14.1
2022-09-11T08:50:05.100Z,14.1
2022-09-11T08:55:05.105Z,14.4
2022-09-11T09:00:05.098Z,14.4
2022-09-11T09:05:05.107Z,12.6
2022-09-11T09:10:05.093Z,12.6
2022-09-11T09:15:05.105Z,12.4
2022-09-11T09:20:05.083Z,12.4
2022-09-11T09:25:05.098Z,9.3
2022-09-11T09:30:05.104Z,9.3
2022-09-11T09:35:05.125Z,9.6
2022-09-11T09:40:05.190Z,9.6
2022-09-11T09:45:05.200Z,10
2022-09-11T09:50:05.093Z,10
2022-09-11T09:55:05.091Z,8.5
2022-09-11T10:00:05.105Z,8.5
2022-09-11T10:05:05.094Z,8.8
2022-09-11T10:10:05.095Z,8.8
2022-09-11T10:15:05.101Z,8.7
2022-09-11T10:20:05.111Z,8.7
2022-09-11T10:25:05.104Z,7.9
2022-09-11T10:30:05.095Z,7.9
2022-09-11T10:35:05.101Z,7.5
2022-09-11T10:40:05.140Z,7.5
2022-09-11T10:45:05.103Z,6.9
2022-09-11T10:50:05.095Z,6.9
2022-09-11T10:55:05.118Z,5.6
2022-09-11T11:00:05.103Z,5.6
2022-09-11T11:05:05.113Z,7.6
2022-09-11T11:10:05.097Z,7.6
2022-09-11T11:15:05.106Z,7.3
2022-09-11T11:20:05.096Z,7.3
2022-09-11T11:25:05.095Z,6
2022-09-11T11:30:05.100Z,6
2022-09-11T11:35:05.097Z,7
2022-09-11T11:40:05.184Z,7
2022-09-11T11:45:05.111Z,7
2022-09-11T11:50:05.090Z,5.2
2022-09-11T11:55:05.096Z,5.2
2022-09-11T12:00:05.109Z,4.9
2022-09-11T12:05:05.106Z,4.9
2022-09-11T12:10:05.098Z,4.9
2022-09-11T12:15:05.102Z,4.9
2022-09-11T12:20:05.111Z,4.8
2022-09-11T12:25:05.105Z,4.8
2022-09-11T12:30:05.099Z,4.8
2022-09-11T12:35:05.103Z,4.8
2022-09-11T12:40:05.189Z,5.5
2022-09-11T12:45:05.098Z,5.5
2022-09-11T12:50:05.112Z,5.5
2022-09-11T12:55:05.108Z,5.5
2022-09-11T13:00:05.103Z,5.1
2022-09-11T13:05:05.107Z,5.1
2022-09-11T13:10:05.093Z,4.7
2022-09-11T13:15:05.104Z,4.7
2022-09-11T13:20:05.107Z,4.5
2022-09-11T13:25:05.106Z,4.5
2022-09-11T13:30:05.105Z,4.6
2022-09-11T13:35:05.110Z,4.6
2022-09-11T13:40:05.148Z,5
2022-09-11T13:45:05.115Z,5
2022-09-11T13:50:05.097Z,5.3
2022-09-11T13:55:05.102Z,5.3
2022-09-11T14:00:05.103Z,5.5
2022-09-11T14:05:05.096Z,5.5
2022-09-11T14:10:05.095Z,5.5
2022-09-11T14:15:05.097Z,5.5
2022-09-11T14:20:05.105Z,5.1
2022-09-11T14:25:05.105Z,5.1
2022-09-11T14:30:05.115Z,5.3
2022-09-11T14:35:05.114Z,5.3
2022-09-11T14:40:05.156Z,5.7
2022-09-11T14:45:05.097Z,5.7
2022-09-11T14:50:05.178Z,5.5
2022-09-11T14:55:05.109Z,5.5
2022-09-11T15:00:05.140Z,6.6
2022-09-11T15:05:05.098Z,6.6
2022-09-11T15:10:05.165Z,5.7
2022-09-11T15:15:05.106Z,5.7
2022-09-11T15:20:05.120Z,6.1
2022-09-11T15:25:05.092Z,6.1
2022-09-11T15:30:05.102Z,6.3
2022-09-11T15:35:05.095Z,6.3
2022-09-11T15:40:05.204Z,6.8
2022-09-11T15:45:05.100Z,6.8
2022-09-11T15:50:05.101Z,6.9
2022-09-11T15:55:05.104Z,6.9
2022-09-11T16:00:05.097Z,7.1
2022-09-11T16:05:05.097Z,7.1
2022-09-11T16:10:05.099Z,6.6
2022-09-11T16:15:05.097Z,6.6
2022-09-11T16:20:05.110Z,7.4
2022-09-11T16:25:05.108Z,7.4
2022-09-11T16:35:05.139Z,8.1
2022-09-11T16:40:05.181Z,8.6
2022-09-11T16:45:05.101Z,8.6
2022-09-11T16:50:07.692Z,8.1
2022-09-11T16:55:05.110Z,8.1
2022-09-11T17:00:05.101Z,7.9
2022-09-11T17:05:05.117Z,7.9
2022-09-11T17:10:05.109Z,7.5
2022-09-11T17:15:05.111Z,7.5
2022-09-11T17:20:05.110Z,8.2
2022-09-11T17:25:05.116Z,8.2
2022-09-11T17:30:05.098Z,7.4
2022-09-11T17:35:05.119Z,7.4
2022-09-11T17:40:05.153Z,7.4
2022-09-11T17:45:05.099Z,7.4
2022-09-11T17:50:05.096Z,7.7
2022-09-11T17:55:05.107Z,7.7
2022-09-11T18:00:05.101Z,7.7
2022-09-11T18:05:05.112Z,7.7
2022-09-11T18:10:05.096Z,8.7
2022-09-11T18:15:05.099Z,8.7
2022-09-11T18:20:05.097Z,8.1
2022-09-11T18:25:05.107Z,8.1
2022-09-11T18:30:05.098Z,9
2022-09-11T18:35:05.104Z,9
2022-09-11T18:40:05.126Z,8.5
2022-09-11T18:45:05.095Z,8.5
2022-09-11T18:50:05.099Z,8.8
2022-09-11T18:55:05.106Z,8.8
2022-09-11T19:00:05.103Z,8.3
2022-09-11T19:05:05.101Z,8.3
2022-09-11T19:10:05.095Z,8.8
2022-09-11T19:15:05.114Z,8.8
2022-09-11T19:20:05.097Z,7.6
2022-09-11T19:25:05.092Z,7.6
2022-09-11T19:30:05.108Z,8.4
2022-09-11T19:35:05.100Z,8.4
2022-09-11T19:40:05.157Z,8.8
2022-09-11T19:45:05.100Z,8.8
2022-09-11T19:50:05.102Z,8.5
2022-09-11T19:55:05.101Z,8.5
2022-09-11T20:00:05.099Z,8.3
2022-09-11T20:05:05.114Z,8.3
2022-09-11T20:10:05.092Z,8.1
2022-09-11T20:15:05.107Z,8.1
2022-09-11T20:20:05.116Z,8.5
2022-09-11T20:25:05.105Z,8.5
2022-09-11T20:30:05.098Z,7.7
2022-09-11T20:35:05.102Z,7.7
2022-09-11T20:40:05.103Z,7.9
2022-09-11T20:45:05.100Z,7.9
2022-09-11T20:50:05.116Z,7.4
2022-09-11T20:55:05.106Z,7.4
2022-09-11T21:00:05.104Z,7.7
2022-09-11T21:05:05.103Z,7.7
2022-09-11T21:10:05.095Z,7.2
2022-09-11T21:15:05.120Z,7.2
2022-09-11T21:20:05.108Z,7.6
2022-09-11T21:25:05.102Z,7.6
2022-09-11T21:30:05.097Z,7
2022-09-11T21:35:05.100Z,7
2022-09-11T21:40:05.115Z,8
2022-09-11T21:45:05.115Z,8
2022-09-11T21:50:05.091Z,8.1
2022-09-11T21:55:05.102Z,8.1
2022-09-11T22:00:05.096Z,9
2022-09-11T22:05:05.108Z,9
2022-09-11T22:10:05.092Z,9.4
2022-09-11T22:15:05.114Z,9.4
2022-09-11T22:20:05.106Z,8.8
2022-09-11T22:25:05.106Z,8.8
2022-09-11T22:30:05.097Z,10.6
2022-09-11T22:35:05.103Z,10.6
2022-09-11T22:40:05.144Z,8.4
2022-09-11T22:45:05.102Z,8.4
2022-09-11T22:50:05.102Z,7.8
2022-09-11T22:55:05.099Z,7.8
2022-09-11T23:00:05.093Z,9.4
2022-09-11T23:05:05.116Z,9.4
2022-09-11T23:10:05.094Z,7.4
2022-09-11T23:15:05.105Z,7.4
2022-09-11T23:20:05.103Z,8.2
2022-09-11T23:25:05.094Z,8.2
2022-09-11T23:30:05.116Z,7.7
2022-09-11T23:35:05.107Z,7.7
2022-09-11T23:40:05.161Z,8
2022-09-11T23:45:05.110Z,8
2022-09-11T23:50:05.099Z,8
2022-09-11T23:55:05.115Z,8
